createdAt,value
2023-03-08T00:12:31.484Z,4732.44199
2023-03-08T00:27:34.014Z,4333.84431
2023-03-08T00:42:36.924Z,3553.04506
2023-03-08T00:57:39.201Z,2338.84348
2023-03-08T01:12:41.584Z,1821.10732
2023-03-08T01:27:43.961Z,1733.00723
2023-03-08T01:42:46.300Z,1568.73663
2023-03-08T01:57:48.731Z,1449.7956
2023-03-08T02:12:51.067Z,1426.4118
2023-03-08T02:27:53.450Z,1292.23795
2023-03-08T02:42:55.854Z,1352.77298
2023-03-08T02:57:58.247Z,1637.73198
2023-03-08T03:13:00.676Z,1565.26598
2023-03-08T03:28:03.037Z,1553.23869
2023-03-08T03:43:05.507Z,1752.32248
2023-03-08T03:58:07.826Z,1580.12333
2023-03-08T04:13:10.215Z,1749.07342
2023-03-08T04:28:12.731Z,1369.79722
2023-03-08T04:43:15.042Z,1357.96596
2023-03-08T04:58:17.346Z,1392.71705
2023-03-08T05:13:19.719Z,2137.46274
2023-03-08T05:28:22.078Z,2142.31693
2023-03-08T05:43:24.455Z,2135.84956
2023-03-08T05:58:26.753Z,2394.24755
2023-03-08T06:13:29.076Z,2500.00051
2023-03-08T06:28:31.636Z,2654.78476
2023-03-08T06:43:33.986Z,2242.47277
2023-03-08T06:58:36.370Z,2540.39549
2023-03-08T07:13:38.732Z,3142.69899
2023-03-08T07:28:41.057Z,2625.23243
2023-03-08T07:58:56.680Z,3234.2862
2023-03-08T08:14:01.278Z,3628.20562
2023-03-08T08:29:06.100Z,3858.21454
2023-03-08T08:44:11.714Z,3936.02275
2023-03-08T08:59:16.524Z,3916.95552
2023-03-08T09:14:21.026Z,3914.24669
2023-03-08T09:29:25.570Z,3519.90099
2023-03-08T09:44:30.050Z,2905.54468
2023-03-08T09:59:34.373Z,2744.90838
2023-03-08T10:14:38.738Z,2452.3402
2023-03-08T10:29:43.135Z,2253.18522
2023-03-08T10:44:47.601Z,2398.3056
2023-03-08T10:59:52.016Z,2502.21095
2023-03-08T11:14:56.585Z,2471.61623
2023-03-08T11:30:01.021Z,2304.56077
2023-03-08T11:45:05.428Z,2295.21543
2023-03-08T12:00:09.859Z,1963.91445
2023-03-08T12:15:14.236Z,1963.91445
2023-03-08T12:30:18.578Z,2524.53218
2023-03-08T12:45:22.969Z,3094.58769
2023-03-08T13:00:27.486Z,2632.55866
2023-03-08T13:15:31.964Z,2799.20923
2023-03-08T13:30:36.405Z,2533.57258
2023-03-08T13:45:40.874Z,2667.29552
2023-03-08T14:00:45.314Z,2298.94446
2023-03-08T14:15:49.831Z,2420.87305
2023-03-08T14:30:54.376Z,2188.70893
2023-03-08T14:45:58.805Z,2102.52651
2023-03-08T15:01:03.145Z,2269.44718
2023-03-08T15:16:07.987Z,2542.67796
2023-03-08T15:31:12.576Z,2867.2751
2023-03-08T15:46:17.190Z,3557.51149
2023-03-08T16:01:21.661Z,4249.24975
2023-03-08T16:16:38.492Z,5017.73102
2023-03-08T16:31:48.841Z,5811.08885
2023-03-08T16:46:53.329Z,6658.82401
2023-03-08T17:01:57.715Z,6974.73862
2023-03-08T17:17:02.300Z,6885.64525
2023-03-08T17:32:06.849Z,6815.17206
2023-03-08T17:47:11.288Z,6543.35308
2023-03-08T18:02:15.897Z,6479.67992
2023-03-08T18:17:18.193Z,6453.82031
2023-03-08T18:32:20.456Z,6698.22533
2023-03-08T18:47:22.775Z,6730.08371
2023-03-08T19:02:27.594Z,6906.65088
2023-03-08T19:17:31.047Z,6742.10887
2023-03-08T19:32:33.359Z,6592.89506
2023-03-08T19:47:35.714Z,6631.51776
2023-03-08T20:02:37.938Z,6581.39582
2023-03-08T20:17:40.180Z,5648.70315
2023-03-08T20:32:42.496Z,5500.48645
2023-03-08T20:47:45.202Z,5359.84902
2023-03-08T21:02:47.549Z,5260.22358
2023-03-08T21:17:49.770Z,5304.59285
2023-03-08T21:32:51.994Z,4887.738
2023-03-08T21:47:54.300Z,4635.54515
2023-03-08T22:02:56.612Z,4327.21763
2023-03-08T22:17:58.906Z,4255.6396
2023-03-08T22:33:01.231Z,3773.33383
2023-03-08T22:48:03.418Z,3680.10452
2023-03-08T23:03:05.728Z,3260.36915
2023-03-08T23:18:08.024Z,3480.9353
2023-03-08T23:33:10.347Z,3106.47688
2023-03-08T23:48:12.588Z,3241.69579
